createdAt,value
2022-09-05T00:01:27.776Z,22.10
2022-09-05T00:04:24.814Z,22.12
2022-09-05T00:07:05.240Z,22.12
2022-09-05T00:10:00.403Z,22.16
2022-09-05T00:12:32.096Z,22.18
2022-09-05T00:15:20.304Z,22.24
2022-09-05T00:21:48.254Z,22.28
2022-09-05T00:24:19.194Z,22.26
2022-09-05T00:24:50.209Z,22.25
2022-09-05T00:27:30.127Z,22.31
2022-09-05T00:31:50.793Z,22.35
2022-09-05T00:33:27.417Z,22.39
2022-09-05T00:36:32.734Z,22.33
2022-09-05T00:39:05.199Z,22.46
2022-09-05T00:41:34.383Z,22.43
2022-09-05T00:44:04.915Z,22.50
2022-09-05T00:46:36.510Z,22.31
2022-09-05T00:49:18.040Z,22.01
2022-09-05T00:51:54.712Z,22.14
2022-09-05T00:54:47.170Z,21.91
2022-09-05T00:57:45.487Z,21.83
2022-09-05T01:00:19.682Z,21.91
2022-09-05T01:03:17.082Z,21.98
2022-09-05T01:06:19.186Z,22.00
2022-09-05T01:09:18.878Z,21.44
2022-09-05T01:12:01.959Z,22.33
2022-09-05T01:14:50.437Z,22.32
2022-09-05T01:17:36.760Z,22.37
2022-09-05T01:20:18.899Z,22.21
2022-09-05T01:23:08.861Z,22.35
2022-09-05T01:26:03.105Z,22.47
2022-09-05T01:29:16.479Z,22.51
2022-09-05T01:31:39.161Z,22.40
2022-09-05T01:34:21.698Z,22.51
2022-09-05T01:37:29.694Z,22.47
2022-09-05T01:40:15.847Z,22.48
2022-09-05T01:43:02.661Z,22.45
2022-09-05T01:45:49.826Z,22.58
2022-09-05T01:48:35.746Z,22.59
2022-09-05T01:51:29.153Z,22.60
2022-09-05T01:54:24.763Z,22.58
2022-09-05T01:57:09.220Z,22.43
2022-09-05T01:59:49.860Z,22.60
2022-09-05T02:02:25.031Z,22.61
2022-09-05T02:05:47.476Z,22.62
2022-09-05T02:08:49.462Z,22.57
2022-09-05T02:11:35.371Z,22.55
2022-09-05T02:14:12.499Z,22.42
2022-09-05T02:16:56.792Z,22.61
2022-09-05T02:19:31.680Z,22.55
2022-09-05T02:22:10.727Z,22.54
2022-09-05T02:24:43.386Z,21.90
2022-09-05T02:28:04.469Z,22.56
2022-09-05T02:30:20.879Z,22.50
2022-09-05T02:32:59.734Z,22.48
2022-09-05T02:35:40.468Z,22.51
2022-09-05T02:38:56.765Z,22.44
2022-09-05T02:45:01.889Z,22.47
2022-09-05T02:45:17.100Z,22.26
2022-09-05T02:46:59.031Z,22.25
2022-09-05T02:51:17.253Z,22.17
2022-09-05T02:57:38.791Z,22.17
2022-09-05T02:57:43.270Z,22.22
2022-09-05T02:59:06.057Z,22.14
2022-09-05T03:02:03.316Z,22.23
2022-09-05T03:05:00.960Z,22.23
2022-09-05T03:07:58.743Z,22.17
2022-09-05T03:11:12.092Z,21.97
2022-09-05T03:14:43.730Z,22.03
2022-09-05T03:17:57.199Z,21.98
2022-09-05T03:21:26.492Z,21.97
2022-09-05T03:24:48.191Z,22.13
2022-09-05T03:28:26.975Z,22.19
2022-09-05T03:31:22.620Z,22.22
2022-09-05T03:34:39.617Z,22.25
2022-09-05T03:37:49.565Z,22.18
2022-09-05T03:40:44.737Z,22.16
2022-09-05T03:43:47.798Z,22.19
2022-09-05T03:46:32.028Z,22.11
2022-09-05T03:50:40.181Z,22.17
2022-09-05T03:57:14.767Z,22.05
2022-09-05T03:57:23.502Z,21.84
2022-09-05T03:58:57.098Z,21.78
2022-09-05T04:04:00.291Z,21.68
2022-09-05T04:08:10.873Z,21.75
2022-09-05T04:08:13.866Z,21.70
2022-09-05T04:10:28.575Z,21.61
2022-09-05T04:13:04.088Z,21.61
2022-09-05T04:15:40.178Z,21.60
2022-09-05T04:18:25.888Z,21.49
2022-09-05T04:21:07.685Z,21.54
2022-09-05T04:23:49.490Z,21.59
2022-09-05T04:26:46.554Z,21.56
2022-09-05T04:29:25.635Z,21.56
2022-09-05T04:32:12.410Z,21.58
2022-09-05T04:35:05.579Z,21.47
2022-09-05T04:37:48.911Z,21.36
2022-09-05T04:40:38.538Z,21.23
2022-09-05T04:43:11.775Z,21.31
2022-09-05T04:45:47.184Z,21.24
2022-09-05T04:48:21.566Z,21.11
2022-09-05T04:51:22.960Z,21.18
2022-09-05T04:54:16.039Z,21.26
2022-09-05T04:56:47.659Z,21.29
2022-09-05T05:01:34.578Z,21.22
2022-09-05T05:06:01.123Z,21.30
2022-09-05T05:06:17.341Z,21.31
2022-09-05T05:08:38.155Z,21.12
2022-09-05T05:17:56.050Z,21.11
2022-09-05T05:18:01.320Z,21.04
2022-09-05T05:18:07.220Z,21.10
2022-09-05T05:20:40.256Z,21.00
2022-09-05T05:23:07.624Z,21.02
2022-09-05T05:25:49.026Z,21.01
2022-09-05T05:28:26.956Z,21.01
2022-09-05T05:31:01.171Z,21.17
2022-09-05T05:33:36.365Z,21.33
2022-09-05T05:36:10.645Z,21.45
2022-09-05T05:38:47.315Z,21.45
2022-09-05T05:41:24.249Z,21.50
2022-09-05T05:43:53.170Z,21.64
2022-09-05T05:46:38.963Z,21.67
2022-09-05T05:49:34.326Z,21.48
2022-09-05T05:52:40.747Z,21.47
2022-09-05T05:55:51.798Z,21.18
2022-09-05T05:58:44.566Z,21.42
2022-09-05T06:02:08.258Z,21.38
2022-09-05T06:05:18.894Z,21.32
2022-09-05T06:10:00.440Z,21.41
2022-09-05T06:14:55.255Z,21.37
2022-09-05T06:15:13.197Z,21.25
2022-09-05T06:18:21.198Z,21.26
2022-09-05T06:22:10.260Z,21.46
2022-09-05T06:25:21.104Z,21.56
2022-09-05T06:28:19.087Z,21.65
2022-09-05T06:31:19.754Z,22.00
2022-09-05T06:34:27.220Z,21.83
2022-09-05T06:37:07.223Z,22.45
2022-09-05T06:40:04.627Z,22.99
2022-09-05T06:42:46.169Z,23.46
2022-09-05T06:45:32.653Z,23.37
2022-09-05T06:48:13.683Z,23.65
2022-09-05T06:51:16.710Z,23.50
2022-09-05T06:54:03.795Z,23.17
2022-09-05T06:57:19.115Z,23.18
2022-09-05T07:00:21.672Z,23.15
2022-09-05T07:03:18.842Z,23.18
2022-09-05T07:05:56.699Z,23.24
2022-09-05T07:08:34.992Z,23.19
2022-09-05T07:11:15.872Z,23.23
2022-09-05T07:14:01.906Z,22.71
2022-09-05T07:16:43.561Z,23.39
2022-09-05T07:19:26.946Z,23.72
2022-09-05T07:22:48.486Z,24.02
2022-09-05T07:25:21.595Z,24.11
2022-09-05T07:28:28.235Z,24.17
2022-09-05T07:30:52.104Z,24.12
2022-09-05T07:33:22.551Z,24.03
2022-09-05T07:35:52.867Z,24.03
2022-09-05T07:38:26.773Z,23.80
2022-09-05T07:41:24.415Z,23.65
2022-09-05T07:43:59.997Z,23.51
2022-09-05T07:46:33.859Z,23.44
2022-09-05T07:49:07.354Z,23.54
2022-09-05T07:56:46.876Z,23.76
2022-09-05T07:56:55.222Z,24.13
2022-09-05T07:57:31.689Z,24.42
2022-09-05T08:00:23.116Z,23.95
2022-09-05T08:02:59.455Z,24.65
2022-09-05T08:05:37.327Z,23.30
2022-09-05T08:08:11.558Z,24.86
2022-09-05T08:11:22.275Z,25.34
2022-09-05T08:13:52.568Z,25.49
2022-09-05T08:16:25.422Z,25.52
2022-09-05T08:19:07.883Z,25.51
2022-09-05T08:21:42.746Z,25.44
2022-09-05T08:24:20.443Z,25.15
2022-09-05T08:26:52.369Z,25.04
2022-09-05T08:29:31.942Z,24.97
2022-09-05T08:32:08.491Z,24.88
2022-09-05T08:34:45.613Z,24.87
2022-09-05T08:37:20.971Z,25.09
2022-09-05T08:40:07.280Z,25.35
2022-09-05T08:45:22.775Z,25.71
2022-09-05T08:46:44.900Z,26.22
2022-09-05T08:48:56.207Z,26.50
2022-09-05T08:51:41.910Z,26.47
2022-09-05T08:54:33.696Z,26.45
2022-09-05T08:57:13.871Z,26.52
2022-09-05T09:00:19.057Z,26.57
2022-09-05T09:02:55.689Z,26.73
2022-09-05T09:06:16.431Z,26.60
2022-09-05T09:09:14.390Z,26.87
2022-09-05T09:11:51.845Z,26.95
2022-09-05T09:14:50.178Z,26.79
2022-09-05T09:17:35.311Z,26.71
2022-09-05T09:20:26.421Z,26.76
2022-09-05T09:23:03.099Z,26.70
2022-09-05T09:25:42.522Z,26.68
2022-09-05T09:28:52.300Z,27.05
2022-09-05T09:31:38.908Z,27.25
2022-09-05T09:34:49.309Z,27.24
2022-09-05T09:38:02.591Z,27.43
2022-09-05T09:41:33.570Z,27.69
2022-09-05T09:45:22.534Z,27.71
2022-09-05T09:48:37.418Z,28.01
2022-09-05T09:51:40.642Z,28.10
2022-09-05T09:54:57.049Z,28.35
2022-09-05T09:58:12.793Z,28.58
2022-09-05T10:00:51.352Z,28.62
2022-09-05T10:08:22.956Z,28.67
2022-09-05T10:10:52.197Z,28.41
2022-09-05T10:14:57.091Z,28.51
2022-09-05T10:17:43.450Z,28.34
2022-09-05T10:21:16.123Z,28.09
2022-09-05T10:24:33.074Z,27.83
2022-09-05T10:27:26.721Z,27.97
2022-09-05T10:30:09.133Z,28.02
2022-09-05T10:35:08.451Z,27.99
2022-09-05T10:35:50.573Z,28.05
2022-09-05T10:38:26.405Z,27.95
2022-09-05T10:41:20.767Z,28.13
2022-09-05T10:43:51.374Z,28.32
2022-09-05T10:46:50.291Z,28.25
2022-09-05T10:49:27.056Z,28.35
2022-09-05T10:52:04.109Z,28.37
2022-09-05T10:55:14.714Z,28.41
2022-09-05T10:57:59.646Z,28.35
2022-09-05T11:02:28.223Z,28.48
2022-09-05T11:03:55.181Z,28.80
2022-09-05T11:06:45.179Z,29.33
2022-09-05T11:09:37.165Z,29.15
2022-09-05T11:12:22.339Z,29.26
2022-09-05T11:14:53.465Z,29.67
2022-09-05T11:17:32.049Z,29.52
2022-09-05T11:20:35.061Z,29.50
2022-09-05T11:23:10.936Z,29.60
2022-09-05T11:25:41.200Z,29.95
2022-09-05T11:28:17.722Z,30.01
2022-09-05T11:30:53.335Z,29.58
2022-09-05T11:35:17.094Z,29.86
2022-09-05T11:40:06.568Z,30.07
2022-09-05T11:40:51.128Z,29.89
2022-09-05T11:44:02.478Z,29.99
2022-09-05T11:46:52.082Z,30.35
2022-09-05T11:50:10.386Z,30.44
2022-09-05T11:53:18.674Z,30.65
2022-09-05T11:56:32.231Z,30.88
2022-09-05T11:59:46.954Z,31.07
2022-09-05T12:02:34.716Z,31.34
2022-09-05T12:08:36.956Z,31.78
2022-09-05T12:11:21.520Z,31.74
2022-09-05T12:13:57.625Z,31.77
2022-09-05T12:16:56.851Z,31.74
2022-09-05T12:19:35.815Z,31.83
2022-09-05T12:22:29.037Z,32.18
2022-09-05T12:27:35.398Z,32.18
2022-09-05T12:32:19.531Z,32.31
2022-09-05T12:36:12.902Z,32.31
2022-09-05T12:40:56.294Z,32.05
2022-09-05T12:41:33.093Z,32.16
2022-09-05T12:42:09.753Z,32.20
2022-09-05T12:42:10.808Z,31.63
2022-09-05T12:43:42.484Z,31.95
2022-09-05T12:45:59.277Z,32.05
2022-09-05T12:48:39.430Z,32.18
2022-09-05T12:51:11.955Z,31.96
2022-09-05T12:54:04.260Z,31.91
2022-09-05T13:02:20.065Z,31.93
2022-09-05T13:03:02.512Z,32.02
2022-09-05T13:03:13.814Z,31.52
2022-09-05T13:05:47.390Z,31.91
2022-09-05T13:08:21.116Z,31.91
2022-09-05T13:14:49.645Z,31.82
2022-09-05T13:14:53.083Z,31.70
2022-09-05T13:16:46.181Z,31.55
2022-09-05T13:19:37.405Z,31.64
2022-09-05T13:22:08.595Z,31.68
2022-09-05T13:24:41.477Z,31.79
2022-09-05T13:27:15.535Z,31.86
2022-09-05T13:32:36.108Z,31.86
2022-09-05T13:38:03.378Z,31.87
2022-09-05T13:38:08.166Z,31.91
2022-09-05T13:38:58.959Z,31.88
2022-09-05T13:41:31.491Z,31.85
2022-09-05T13:44:25.211Z,31.87
2022-09-05T13:46:58.891Z,31.85
2022-09-05T13:49:35.169Z,31.86
2022-09-05T13:52:28.009Z,31.79
2022-09-05T13:55:17.933Z,31.87
2022-09-05T13:57:51.030Z,31.88
2022-09-05T14:01:12.730Z,31.89
2022-09-05T14:08:33.566Z,31.56
2022-09-05T14:11:36.412Z,31.38
2022-09-05T14:15:08.083Z,31.25
2022-09-05T14:20:37.314Z,31.03
2022-09-05T14:23:13.419Z,30.93
2022-09-05T14:25:44.866Z,30.98
2022-09-05T14:28:22.173Z,31.01
2022-09-05T14:35:20.784Z,30.89
2022-09-05T14:37:40.950Z,30.62
2022-09-05T14:37:49.771Z,30.74
2022-09-05T14:41:26.886Z,30.73
2022-09-05T14:44:22.711Z,30.79
2022-09-05T14:47:35.411Z,30.80
2022-09-05T14:50:29.304Z,30.64
2022-09-05T14:57:02.091Z,30.51
2022-09-05T15:02:51.312Z,30.82
2022-09-05T15:02:57.790Z,30.58
2022-09-05T15:04:56.472Z,30.76
2022-09-05T15:07:29.330Z,30.76
2022-09-05T15:12:14.602Z,30.76
2022-09-05T15:13:17.436Z,30.71
2022-09-05T15:16:02.012Z,30.57
2022-09-05T15:18:33.530Z,30.59
2022-09-05T15:21:30.669Z,30.59
2022-09-05T15:24:21.352Z,30.55
2022-09-05T15:26:53.802Z,30.48
2022-09-05T15:29:27.639Z,29.05
2022-09-05T15:32:14.819Z,30.61
2022-09-05T15:34:43.115Z,30.71
2022-09-05T15:37:25.443Z,30.73
2022-09-05T15:40:23.176Z,30.77
2022-09-05T15:42:55.706Z,30.67
2022-09-05T15:45:29.142Z,30.61
2022-09-05T15:48:12.528Z,30.29
2022-09-05T15:50:50.122Z,30.12
2022-09-05T15:53:26.454Z,30.35
2022-09-05T15:56:00.155Z,30.16
2022-09-05T15:58:35.964Z,30.40
2022-09-05T16:01:45.035Z,30.44
2022-09-05T16:08:26.429Z,30.34
2022-09-05T16:10:48.950Z,30.50
2022-09-05T16:10:49.320Z,30.41
2022-09-05T16:12:53.559Z,30.43
2022-09-05T16:19:06.526Z,29.84
2022-09-05T16:23:27.195Z,30.51
2022-09-05T16:23:35.248Z,30.56
2022-09-05T16:24:06.002Z,30.45
2022-09-05T16:26:41.370Z,30.44
2022-09-05T16:29:26.116Z,30.14
2022-09-05T16:32:16.275Z,29.51
2022-09-05T16:34:55.270Z,29.24
2022-09-05T16:37:31.101Z,29.38
2022-09-05T16:40:08.647Z,29.20
2022-09-05T16:42:47.509Z,29.19
2022-09-05T16:45:31.516Z,28.99
2022-09-05T16:48:16.963Z,28.40
2022-09-05T16:50:53.072Z,28.21
2022-09-05T16:53:33.438Z,27.83
2022-09-05T16:56:07.691Z,27.91
2022-09-05T16:58:41.964Z,27.79
2022-09-05T17:01:28.624Z,27.49
2022-09-05T17:03:59.086Z,27.44
2022-09-05T17:06:45.061Z,27.29
2022-09-05T17:09:24.832Z,27.23
2022-09-05T17:12:01.875Z,27.79
2022-09-05T17:14:36.070Z,27.88
2022-09-05T17:18:18.262Z,28.01
2022-09-05T17:20:14.415Z,28.11
2022-09-05T17:26:21.695Z,27.80
2022-09-05T17:29:28.586Z,27.55
2022-09-05T17:29:31.431Z,27.61
2022-09-05T17:32:04.454Z,27.25
2022-09-05T17:35:17.567Z,27.60
2022-09-05T17:38:40.083Z,27.68
2022-09-05T17:41:36.331Z,27.80
2022-09-05T17:44:18.018Z,27.88
2022-09-05T17:47:06.575Z,27.90
2022-09-05T17:49:45.215Z,27.91
2022-09-05T17:52:22.914Z,27.99
2022-09-05T17:54:55.551Z,27.46
2022-09-05T17:57:49.241Z,27.99
2022-09-05T18:01:04.536Z,27.87
2022-09-05T18:04:17.892Z,27.80
2022-09-05T18:06:59.780Z,27.37
2022-09-05T18:10:11.908Z,27.18
2022-09-05T18:13:12.630Z,26.64
2022-09-05T18:16:13.141Z,26.42
2022-09-05T18:19:28.764Z,26.18
2022-09-05T18:21:51.062Z,25.60
2022-09-05T18:24:33.448Z,25.72
2022-09-05T18:27:43.890Z,25.64
2022-09-05T18:30:12.528Z,25.08
2022-09-05T18:32:45.248Z,24.65
2022-09-05T18:35:37.329Z,24.87
2022-09-05T18:38:51.617Z,24.56
2022-09-05T18:41:23.481Z,24.86
2022-09-05T18:44:13.667Z,23.34
2022-09-05T18:46:51.907Z,23.11
2022-09-05T18:50:22.104Z,23.68
2022-09-05T18:52:23.738Z,23.62
2022-09-05T18:56:09.811Z,23.48
2022-09-05T18:57:51.491Z,22.70
2022-09-05T19:00:35.214Z,22.76
2022-09-05T19:03:19.291Z,22.56
2022-09-05T19:05:54.684Z,22.89
2022-09-05T19:08:28.762Z,23.06
2022-09-05T19:11:26.903Z,23.16
2022-09-05T19:14:02.762Z,23.35
2022-09-05T19:16:47.948Z,23.46
2022-09-05T19:19:24.503Z,23.60
2022-09-05T19:22:05.504Z,23.49
2022-09-05T19:24:45.904Z,23.00
2022-09-05T19:28:13.958Z,23.56
2022-09-05T19:36:48.647Z,23.69
2022-09-05T19:37:05.767Z,23.37
2022-09-05T19:37:12.862Z,23.62
2022-09-05T19:39:23.174Z,23.39
2022-09-05T19:47:28.292Z,23.55
2022-09-05T19:47:42.612Z,23.52
2022-09-05T19:47:56.385Z,23.59
2022-09-05T19:50:20.345Z,23.63
2022-09-05T19:52:52.973Z,23.62
2022-09-05T19:55:24.324Z,23.63
2022-09-05T19:58:19.395Z,23.70
2022-09-05T20:00:50.374Z,23.60
2022-09-05T20:03:35.457Z,23.72
2022-09-05T20:06:30.191Z,23.50
2022-09-05T20:09:17.692Z,23.60
2022-09-05T20:11:50.883Z,23.63
2022-09-05T20:14:24.561Z,22.70
2022-09-05T20:16:57.014Z,22.58
2022-09-05T20:19:31.440Z,22.86
2022-09-05T20:22:24.237Z,22.93
2022-09-05T20:24:56.255Z,23.21
2022-09-05T20:27:28.101Z,23.32
2022-09-05T20:30:00.042Z,23.19
2022-09-05T20:32:39.947Z,23.45
2022-09-05T20:39:05.484Z,23.53
2022-09-05T20:43:17.606Z,23.61
2022-09-05T20:43:22.290Z,23.09
2022-09-05T20:44:17.365Z,22.18
2022-09-05T20:51:46.084Z,21.79
2022-09-05T20:54:08.294Z,20.74
2022-09-05T20:54:16.040Z,20.36
2022-09-05T20:55:39.038Z,20.18
2022-09-05T20:58:11.942Z,20.12
2022-09-05T21:01:11.709Z,20.29
2022-09-05T21:03:38.593Z,20.56
2022-09-05T21:06:22.644Z,20.79
2022-09-05T21:08:53.225Z,20.57
2022-09-05T21:11:33.692Z,20.41
2022-09-05T21:14:04.932Z,20.29
2022-09-05T21:16:37.104Z,20.10
2022-09-05T21:19:05.823Z,20.04
2022-09-05T21:21:36.105Z,19.81
2022-09-05T21:24:17.163Z,19.54
2022-09-05T21:26:49.554Z,19.61
2022-09-05T21:29:27.510Z,19.57
2022-09-05T21:32:05.587Z,19.43
2022-09-05T21:34:45.035Z,19.33
2022-09-05T21:37:16.129Z,19.26
2022-09-05T21:39:58.827Z,19.22
2022-09-05T21:45:08.511Z,19.00
2022-09-05T21:47:44.484Z,19.01
2022-09-05T21:48:10.546Z,19.03
2022-09-05T21:50:45.085Z,19.18
2022-09-05T21:58:14.610Z,19.30
2022-09-05T21:59:28.368Z,19.30
2022-09-05T21:59:29.611Z,19.34
2022-09-05T22:02:00.728Z,19.47
2022-09-05T22:04:29.385Z,19.52
2022-09-05T22:07:03.112Z,19.34
2022-09-05T22:09:31.795Z,18.95
2022-09-05T22:12:00.047Z,19.46
2022-09-05T22:14:35.755Z,19.60
2022-09-05T22:17:05.081Z,19.65
2022-09-05T22:19:37.774Z,19.62
2022-09-05T22:22:16.247Z,19.36
2022-09-05T22:24:50.305Z,19.48
2022-09-05T22:27:20.562Z,19.44
2022-09-05T22:29:51.947Z,19.37
2022-09-05T22:32:33.972Z,19.46
2022-09-05T22:35:27.041Z,19.83
2022-09-05T22:37:59.734Z,19.96
2022-09-05T22:40:30.212Z,20.03
2022-09-05T22:43:00.268Z,19.89
2022-09-05T22:45:32.013Z,19.89
2022-09-05T22:48:00.773Z,19.90
2022-09-05T22:50:29.073Z,19.95
2022-09-05T22:52:57.333Z,20.06
2022-09-05T22:55:25.736Z,20.07
2022-09-05T22:57:54.043Z,20.02
2022-09-05T23:00:22.510Z,20.10
2022-09-05T23:02:58.164Z,20.16
2022-09-05T23:05:26.927Z,20.24
2022-09-05T23:07:59.042Z,20.18
2022-09-05T23:10:28.499Z,20.22
2022-09-05T23:12:57.685Z,20.13
2022-09-05T23:15:26.900Z,20.30
2022-09-05T23:17:58.116Z,20.43
2022-09-05T23:20:29.829Z,20.55
2022-09-05T23:22:58.505Z,20.63
2022-09-05T23:25:26.847Z,20.49
2022-09-05T23:27:55.111Z,20.46
2022-09-05T23:30:23.403Z,20.62
2022-09-05T23:32:53.254Z,20.58
2022-09-05T23:35:22.893Z,20.59
2022-09-05T23:37:51.179Z,20.43
2022-09-05T23:40:22.978Z,20.37
2022-09-05T23:42:55.561Z,20.05
2022-09-05T23:45:25.259Z,20.23
2022-09-05T23:47:54.383Z,20.14
2022-09-05T23:50:24.139Z,20.35
2022-09-05T23:52:52.526Z,20.51
2022-09-05T23:55:23.225Z,20.61
2022-09-05T23:57:57.778Z,20.75
